Time;durP1;ratioP1;P1;durP2;ratioP2;P2;SDS_P1;SDS_P2;PMS_P1;PMS_P2;Temp;Humidity;BMP_temperature;BMP_pressure;BME280_temperature;BME280_humidity;BME280_pressure;Samples;Min_cycle;Max_cycle;Signal;HPM_P1;HPM_P2
2021/12/10 00:02:08;;;;;;;;;45.75;38.75;;;;;4.44;89.14;98452.38;5008683;28;8872;-75
2021/12/10 00:04:41;;;;;;;;;40.75;35.25;;;;;4.74;87.35;98455.13;5009090;28;9029;-74
2021/12/10 00:07:15;;;;;;;;;32.00;30.00;;;;;4.99;86.29;98475.06;5009611;28;8886;-74
2021/12/10 00:09:47;;;;;;;;;33.75;33.75;;;;;5.35;85.17;98491.56;5009049;28;9628;-76
2021/12/10 00:12:19;;;;;;;;;31.00;28.25;;;;;5.63;83.43;98491.63;5025939;28;8856;-74
2021/12/10 00:14:49;;;;;;;;;36.25;32.75;;;;;5.82;81.41;98498.56;5008637;28;8861;-74
2021/12/10 00:17:20;;;;;;;;;34.00;32.25;;;;;5.89;79.89;98489.06;5008923;28;8892;-73
2021/12/10 00:19:55;;;;;;;;;31.00;26.00;;;;;5.79;79.31;98479.59;5022812;28;9685;-73
2021/12/10 00:22:34;;;;;;;;;35.00;31.50;;;;;5.32;80.45;98481.19;5068286;28;8892;-74
2021/12/10 00:25:05;;;;;;;;;31.25;28.25;;;;;4.92;83.08;98482.78;5066638;28;8862;-75
2021/12/10 00:27:34;;;;;;;;;32.25;30.75;;;;;5.06;82.72;98488.84;5044937;28;8858;-76
2021/12/10 00:30:09;;;;;;;;;31.75;29.25;;;;;5.03;82.22;98492.28;5015374;28;8889;-73
2021/12/10 00:32:43;;;;;;;;;34.50;28.00;;;;;4.91;83.49;98493.94;5027997;28;8885;-76
2021/12/10 00:35:17;;;;;;;;;35.50;35.50;;;;;5.02;83.25;98494.84;5045207;28;8905;-74
2021/12/10 00:37:46;;;;;;;;;32.25;31.25;;;;;5.36;82.69;98497.59;5028461;28;8917;-74
2021/12/10 00:40:17;;;;;;;;;30.75;28.75;;;;;5.66;81.70;98501.97;5045168;28;8877;-75
2021/12/10 00:42:46;;;;;;;;;29.50;28.00;;;;;5.94;80.38;98494.28;5005010;28;8883;-72
2021/12/10 00:45:17;;;;;;;;;35.25;32.50;;;;;5.71;78.60;98492.50;4989430;28;8875;-75
2021/12/10 00:47:46;;;;;;;;;35.00;32.50;;;;;5.00;82.52;98494.84;5005415;28;8911;-75
2021/12/10 00:50:20;;;;;;;;;38.75;32.25;;;;;4.31;85.31;98491.88;4989376;28;9131;-74
2021/12/10 00:52:50;;;;;;;;;32.00;29.75;;;;;3.99;87.66;98484.72;5005570;28;8856;-74
2021/12/10 00:55:18;;;;;;;;;34.75;33.00;;;;;3.69;89.92;98475.00;4969635;28;8870;-74
2021/12/10 00:57:47;;;;;;;;;34.75;32.50;;;;;3.56;91.18;98473.16;4985515;28;8896;-74
2021/12/10 01:00:19;;;;;;;;;34.75;33.25;;;;;3.53;92.59;98478.28;5008741;28;8957;-73
2021/12/10 01:02:48;;;;;;;;;34.50;28.75;;;;;3.70;90.99;98476.72;5007992;28;8928;-74
2021/12/10 01:05:19;;;;;;;;;34.00;32.50;;;;;3.88;89.98;98474.31;4945659;28;13922;-73
2021/12/10 01:07:49;;;;;;;;;33.75;29.75;;;;;3.57;92.39;98474.88;5026577;28;8853;-75
2021/12/10 01:10:22;;;;;;;;;39.25;36.00;;;;;3.43;93.97;98475.59;4963292;28;9714;-74
2021/12/10 01:12:55;;;;;;;;;35.00;32.50;;;;;3.36;95.03;98465.22;5021204;28;8914;-72
2021/12/10 01:15:43;;;;;;;;;37.50;34.00;;;;;3.19;95.21;98476.19;5011839;28;8892;-74
2021/12/10 01:24:14;;;;;;;;;38.00;34.75;;;;;3.21;95.24;98466.75;4985428;28;8982;-74
2021/12/10 01:26:58;;;;;;;;;41.00;36.50;;;;;2.95;96.64;98469.03;4985515;28;8903;-74
2021/12/10 01:29:31;;;;;;;;;38.00;37.00;;;;;3.07;97.11;98482.06;4983772;28;8854;-72
2021/12/10 01:32:02;;;;;;;;;43.25;36.00;;;;;3.46;95.39;98491.09;5018583;28;8878;-73
2021/12/10 01:34:31;;;;;;;;;38.50;35.50;;;;;3.64;92.21;98486.97;5023865;28;8856;-75
2021/12/10 01:37:02;;;;;;;;;39.50;39.50;;;;;3.28;94.40;98472.84;5036903;28;8881;-73
2021/12/10 01:39:40;;;;;;;;;39.50;38.75;;;;;3.22;95.48;98457.34;5045853;28;8866;-74
2021/12/10 01:42:17;;;;;;;;;46.50;37.75;;;;;3.40;94.21;98451.50;5031538;28;8862;-72
2021/12/10 01:44:51;;;;;;;;;47.75;43.00;;;;;3.51;93.63;98452.47;5035723;28;8898;-74
2021/12/10 01:47:25;;;;;;;;;38.25;35.50;;;;;3.82;91.41;98458.78;5047952;28;8850;-75
2021/12/10 01:49:54;;;;;;;;;43.75;37.25;;;;;3.48;92.26;98455.03;5048179;28;8874;-73
2021/12/10 01:52:25;;;;;;;;;37.25;33.00;;;;;3.58;93.24;98474.03;5047717;28;8846;-74
2021/12/10 01:54:57;;;;;;;;;46.25;37.25;;;;;3.61;92.42;98472.34;5031485;28;8855;-71
2021/12/10 01:57:29;;;;;;;;;39.50;34.50;;;;;3.55;92.85;98474.84;5048872;28;8866;-73
2021/12/10 01:59:58;;;;;;;;;38.50;36.25;;;;;3.70;91.92;98464.72;5059172;28;8983;-73
2021/12/10 02:02:30;;;;;;;;;44.00;41.00;;;;;3.88;90.43;98473.47;5052428;28;8891;-73
2021/12/10 02:04:59;;;;;;;;;38.25;33.25;;;;;3.99;90.59;98470.94;5068946;28;8961;-72
2021/12/10 02:07:29;;;;;;;;;36.50;36.00;;;;;4.35;88.65;98469.50;5069189;28;8877;-75
2021/12/10 02:09:58;;;;;;;;;35.00;30.50;;;;;4.57;86.48;98466.19;5070628;28;8881;-73
2021/12/10 02:12:26;;;;;;;;;50.00;43.25;;;;;4.69;85.03;98461.13;5056512;28;8866;-75
2021/12/10 02:15:01;;;;;;;;;36.00;33.75;;;;;4.44;85.28;98454.97;5070968;28;9638;-73
2021/12/10 02:17:34;;;;;;;;;44.25;38.50;;;;;4.35;86.62;98459.19;5067669;28;8910;-72
2021/12/10 02:20:08;;;;;;;;;42.75;37.00;;;;;4.37;86.26;98452.34;5070917;28;8893;-73
2021/12/10 02:22:39;;;;;;;;;45.00;36.50;;;;;4.34;86.87;98455.75;5087924;28;8863;-74
2021/12/10 02:25:08;;;;;;;;;44.00;40.00;;;;;4.52;85.47;98455.00;5071036;28;8965;-72
2021/12/10 02:27:37;;;;;;;;;45.75;38.50;;;;;4.47;85.48;98446.38;5070662;28;8851;-73
2021/12/10 02:30:09;;;;;;;;;40.00;31.75;;;;;4.17;88.07;98445.31;5058051;28;8964;-73
2021/12/10 02:32:38;;;;;;;;;41.25;36.75;;;;;3.70;91.26;98432.88;5064252;28;8873;-75
2021/12/10 02:35:11;;;;;;;;;43.00;38.50;;;;;3.42;93.65;98424.91;5101807;28;9632;-74
2021/12/10 02:37:43;;;;;;;;;40.75;38.50;;;;;3.17;96.01;98425.50;5070915;28;8831;-74
2021/12/10 02:40:15;;;;;;;;;43.25;40.00;;;;;3.20;96.46;98413.53;5021825;28;8863;-75
2021/12/10 02:42:44;;;;;;;;;45.00;38.25;;;;;3.26;96.61;98411.00;5070517;28;9001;-73
2021/12/10 02:45:15;;;;;;;;;46.75;41.00;;;;;3.37;96.56;98407.69;5087285;28;8835;-72
2021/12/10 02:47:44;;;;;;;;;49.50;45.50;;;;;3.28;96.80;98411.88;5070484;28;8843;-75
2021/12/10 02:50:16;;;;;;;;;40.25;38.25;;;;;3.28;97.91;98396.41;5070656;28;8867;-76
2021/12/10 02:52:47;;;;;;;;;47.25;42.25;;;;;3.29;98.99;98428.22;5079033;28;8847;-74
2021/12/10 02:55:17;;;;;;;;;49.50;42.00;;;;;3.55;96.77;98423.28;5087542;28;8844;-72
2021/12/10 02:57:53;;;;;;;;;44.50;36.75;;;;;3.57;96.47;98434.47;5088661;28;8940;-74
2021/12/10 03:00:28;;;;;;;;;47.75;39.25;;;;;3.21;98.67;98420.38;5105361;28;8962;-74
2021/12/10 03:02:57;;;;;;;;;48.25;42.50;;;;;2.99;100.00;98428.75;5088502;28;8871;-74
2021/12/10 03:05:26;;;;;;;;;48.00;40.75;;;;;2.89;100.00;98432.91;5089846;28;9619;-75
2021/12/10 03:07:56;;;;;;;;;47.00;42.75;;;;;2.96;100.00;98436.44;5088791;28;8855;-72
2021/12/10 03:10:28;;;;;;;;;50.50;44.75;;;;;3.13;100.00;98428.03;5066537;28;8866;-73
2021/12/10 03:12:57;;;;;;;;;52.50;43.25;;;;;3.17;100.00;98430.66;5050018;28;8838;-72
2021/12/10 03:15:27;;;;;;;;;52.25;40.75;;;;;3.18;100.00;98417.78;5049890;28;8861;-75
2021/12/10 03:17:57;;;;;;;;;53.25;42.25;;;;;3.50;100.00;98412.09;5050827;28;8861;-74
2021/12/10 03:20:29;;;;;;;;;44.50;39.75;;;;;3.82;98.15;98414.97;5049690;28;8853;-75
2021/12/10 03:23:01;;;;;;;;;50.00;40.75;;;;;4.20;96.77;98401.47;5050493;28;9483;-74
2021/12/10 03:25:30;;;;;;;;;53.25;42.50;;;;;4.48;93.84;98394.75;5066141;28;8857;-76
2021/12/10 03:27:59;;;;;;;;;45.50;43.50;;;;;4.73;92.13;98381.09;5034285;28;8833;-76
2021/12/10 03:30:31;;;;;;;;;47.00;41.75;;;;;4.91;90.06;98393.19;5050599;28;8946;-73
2021/12/10 03:33:00;;;;;;;;;48.00;43.50;;;;;5.06;89.10;98401.84;5049908;28;8837;-77
2021/12/10 03:35:32;;;;;;;;;56.00;46.00;;;;;5.24;87.96;98395.03;5052001;28;8845;-74
2021/12/10 03:38:05;;;;;;;;;45.25;42.25;;;;;5.35;86.58;98403.66;5066835;28;10476;-74
2021/12/10 03:40:35;;;;;;;;;31.50;29.50;;;;;5.41;85.79;98408.84;5052389;28;8849;-74
2021/12/10 03:43:07;;;;;;;;;47.25;40.00;;;;;5.62;85.39;98414.91;5067619;28;8975;-76
2021/12/10 03:45:38;;;;;;;;;45.75;41.50;;;;;5.71;84.91;98421.78;5033435;28;8978;-74
2021/12/10 03:48:11;;;;;;;;;41.50;38.00;;;;;5.88;84.50;98422.69;5084875;28;8811;-73
2021/12/10 03:50:41;;;;;;;;;36.00;31.00;;;;;6.02;83.66;98433.06;5087609;28;8991;-74
2021/12/10 03:53:12;;;;;;;;;45.00;38.75;;;;;6.15;82.69;98427.00;5087443;28;9821;-75
2021/12/10 03:55:42;;;;;;;;;43.25;36.75;;;;;6.27;82.00;98443.38;5087992;28;8852;-73
2021/12/10 03:58:11;;;;;;;;;37.50;35.50;;;;;6.37;80.95;98445.97;5071395;28;8887;-74
2021/12/10 04:00:43;;;;;;;;;35.50;32.75;;;;;6.51;80.84;98445.94;5087424;28;8957;-73
2021/12/10 04:03:14;;;;;;;;;39.75;36.75;;;;;6.54;79.80;98442.47;5088354;28;8952;-74
2021/12/10 04:05:44;;;;;;;;;37.00;36.25;;;;;6.60;79.31;98438.16;5070622;28;9635;-74
2021/12/10 04:08:15;;;;;;;;;44.75;40.25;;;;;6.69;78.76;98439.88;5052833;28;8960;-73
2021/12/10 04:10:44;;;;;;;;;36.00;30.75;;;;;6.75;78.35;98442.44;5068743;28;8894;-75
2021/12/10 04:13:14;;;;;;;;;32.75;32.75;;;;;6.80;78.34;98440.66;5099852;28;9624;-73
2021/12/10 04:15:43;;;;;;;;;38.25;35.25;;;;;6.74;77.43;98445.88;5052443;28;8940;-76
2021/12/10 04:18:12;;;;;;;;;44.00;37.25;;;;;6.02;78.95;98444.25;5084801;28;8982;-72
2021/12/10 04:20:42;;;;;;;;;48.25;35.50;;;;;5.89;80.47;98439.06;5051615;28;9797;-73
2021/12/10 04:23:15;;;;;;;;;40.25;35.00;;;;;5.65;80.92;98440.75;5085792;28;8855;-73
2021/12/10 04:25:44;;;;;;;;;47.75;38.75;;;;;4.75;86.43;98449.09;5052165;28;8975;-73
2021/12/10 04:28:21;;;;;;;;;41.50;39.25;;;;;4.36;88.55;98448.88;5085607;28;8863;-75
2021/12/10 04:30:51;;;;;;;;;47.75;39.25;;;;;3.98;92.29;98457.19;5067934;28;9664;-77
2021/12/10 04:33:23;;;;;;;;;44.75;38.00;;;;;4.18;91.71;98459.94;5051310;28;12927;-74
2021/12/10 04:35:54;;;;;;;;;57.33;46.33;;;;;4.04;92.54;98461.53;5053799;28;8851;-72
2021/12/10 04:38:26;;;;;;;;;47.25;38.00;;;;;3.85;93.65;98463.97;5045268;28;8866;-73
2021/12/10 04:41:01;;;;;;;;;44.50;32.25;;;;;3.70;95.07;98459.56;5083711;28;8862;-74
2021/12/10 04:43:32;;;;;;;;;50.25;39.50;;;;;3.57;96.81;98455.09;5067328;28;8969;-73
2021/12/10 04:46:01;;;;;;;;;43.00;34.25;;;;;3.50;97.58;98455.91;5053124;28;8850;-73
2021/12/10 04:48:42;;;;;;;;;30.50;26.00;;;;;3.47;98.01;98450.72;5031994;28;9591;-73
2021/12/10 04:51:11;;;;;;;;;34.75;28.25;;;;;3.57;96.66;98452.53;5083404;28;8862;-75
2021/12/10 04:53:41;;;;;;;;;33.75;30.75;;;;;3.32;97.79;98461.72;5066661;28;8851;-74
2021/12/10 04:56:10;;;;;;;;;34.50;29.00;;;;;3.37;98.44;98454.06;5066974;28;8863;-74
2021/12/10 04:58:39;;;;;;;;;28.00;25.25;;;;;3.43;97.58;98454.13;5067328;28;8854;-74
2021/12/10 05:01:08;;;;;;;;;12.00;11.75;;;;;3.31;98.27;98452.28;5066536;28;8885;-74
2021/12/10 05:03:37;;;;;;;;;32.00;27.50;;;;;3.35;98.29;98451.47;5079919;28;8877;-73
2021/12/10 05:06:06;;;;;;;;;33.75;26.25;;;;;3.29;98.81;98447.13;5061051;28;8989;-73
2021/12/10 05:08:37;;;;;;;;;32.25;29.25;;;;;3.31;98.83;98452.28;5052654;28;8846;-73
2021/12/10 05:11:10;;;;;;;;;28.50;26.25;;;;;3.31;98.26;98454.88;5066180;28;8870;-74
2021/12/10 05:13:41;;;;;;;;;24.00;23.00;;;;;3.22;98.71;98459.91;5066082;28;8874;-74
2021/12/10 05:16:11;;;;;;;;;26.75;24.75;;;;;3.07;99.21;98456.31;5067435;28;8926;-73
2021/12/10 05:18:44;;;;;;;;;22.75;21.00;;;;;3.15;99.49;98451.25;5069738;28;9552;-72
2021/12/10 05:21:15;;;;;;;;;21.50;20.75;;;;;3.22;98.91;98449.59;5069912;28;8850;-74
2021/12/10 05:23:43;;;;;;;;;21.25;20.75;;;;;3.18;99.13;98446.13;5070214;28;8892;-74
2021/12/10 05:26:14;;;;;;;;;30.00;25.75;;;;;3.51;97.86;98445.59;5039190;28;8857;-75
2021/12/10 05:28:43;;;;;;;;;24.00;21.75;;;;;3.65;95.01;98442.31;5071920;28;8877;-73
2021/12/10 05:31:12;;;;;;;;;26.75;23.75;;;;;3.64;95.20;98444.00;5088209;28;8874;-76
2021/12/10 05:33:40;;;;;;;;;23.80;21.00;;;;;3.76;92.98;98453.56;5054378;28;8853;-76
2021/12/10 05:36:10;;;;;;;;;24.60;20.00;;;;;3.67;92.50;98453.50;5069362;28;8832;-74
2021/12/10 05:38:39;;;;;;;;;20.75;18.50;;;;;3.48;93.43;98460.19;5071602;28;8849;-73
2021/12/10 05:41:10;;;;;;;;;25.75;25.00;;;;;3.30;95.07;98458.28;5088310;28;8846;-73
2021/12/10 05:43:42;;;;;;;;;19.80;16.80;;;;;2.93;96.31;98456.16;5051625;28;8844;-73
2021/12/10 05:46:12;;;;;;;;;19.40;18.20;;;;;2.86;98.08;98454.34;5067334;28;8853;-74
2021/12/10 05:48:41;;;;;;;;;25.00;24.25;;;;;2.73;99.67;98450.72;5071176;28;8853;-74
2021/12/10 05:51:11;;;;;;;;;26.25;24.75;;;;;2.65;99.92;98454.94;5054858;28;8869;-73
2021/12/10 05:53:40;;;;;;;;;22.25;21.75;;;;;2.58;100.00;98450.53;5051179;28;8960;-74
2021/12/10 05:56:09;;;;;;;;;27.75;25.50;;;;;2.71;99.65;98449.84;5061584;28;8839;-71
2021/12/10 05:58:40;;;;;;;;;24.75;24.25;;;;;2.71;98.83;98449.84;5034408;28;9575;-74
2021/12/10 06:01:15;;;;;;;;;24.50;21.50;;;;;2.65;99.62;98451.50;5017250;28;8869;-73
2021/12/10 06:03:51;;;;;;;;;23.00;19.80;;;;;2.75;98.12;98445.63;5050815;28;8862;-73
2021/12/10 06:06:22;;;;;;;;;28.25;27.75;;;;;2.72;97.60;98441.28;5050675;28;9692;-75
2021/12/10 06:08:51;;;;;;;;;26.50;24.00;;;;;2.80;97.71;98443.97;5067246;28;8878;-75
2021/12/10 06:11:21;;;;;;;;;15.00;14.00;;;;;3.12;96.25;98436.63;5048878;28;8982;-74
2021/12/10 06:13:51;;;;;;;;;36.50;31.50;;;;;3.04;95.78;98422.78;5047277;28;8959;-73
2021/12/10 06:16:20;;;;;;;;;30.25;26.75;;;;;3.28;94.69;98423.91;5043805;28;8878;-74
2021/12/10 06:18:49;;;;;;;;;30.75;26.00;;;;;3.29;92.79;98417.91;5038186;28;8865;-77
2021/12/10 06:21:19;;;;;;;;;29.50;27.75;;;;;3.11;94.60;98421.16;5066288;28;9642;-74
2021/12/10 06:23:48;;;;;;;;;13.00;4.75;;;;;2.87;95.82;98416.56;5050957;28;8889;-76
2021/12/10 06:26:17;;;;;;;;;34.75;29.50;;;;;2.98;94.85;98427.00;5049864;28;9057;-74
2021/12/10 06:28:46;;;;;;;;;19.75;17.00;;;;;3.35;94.50;98437.72;5068764;28;8970;-74
2021/12/10 06:31:21;;;;;;;;;30.75;28.25;;;;;3.71;92.58;98440.63;5072256;27;8890;-76
2021/12/10 06:33:50;;;;;;;;;30.75;26.50;;;;;4.05;90.24;98440.06;5061051;28;8945;-72
2021/12/10 06:36:21;;;;;;;;;27.00;23.50;;;;;4.16;88.07;98440.13;5110165;28;8859;-73
2021/12/10 06:38:51;;;;;;;;;31.25;28.00;;;;;4.35;86.38;98438.53;5057776;28;8839;-74
2021/12/10 06:41:20;;;;;;;;;29.75;29.00;;;;;4.32;85.55;98441.13;5091576;28;8875;-76
2021/12/10 06:43:49;;;;;;;;;27.75;26.75;;;;;4.09;85.07;98436.66;5110259;28;8871;-73
2021/12/10 06:46:19;;;;;;;;;31.75;29.50;;;;;4.04;86.04;98443.47;5091144;28;8844;-74
2021/12/10 06:48:48;;;;;;;;;31.25;26.75;;;;;4.32;86.03;98438.53;5110405;28;8870;-74
2021/12/10 06:51:20;;;;;;;;;37.00;35.75;;;;;4.39;85.16;98440.31;5091726;28;8894;-73
2021/12/10 06:53:49;;;;;;;;;30.25;30.25;;;;;4.54;84.16;98448.13;5074426;28;8855;-71
2021/12/10 06:56:19;;;;;;;;;42.00;32.75;;;;;4.71;82.76;98435.31;5091606;28;9783;-75
2021/12/10 06:58:48;;;;;;;;;32.75;28.50;;;;;4.73;81.44;98443.06;5091266;28;9013;-76
2021/12/10 07:01:22;;;;;;;;;25.50;22.00;;;;;4.76;81.39;98450.81;5063995;28;8966;-75
2021/12/10 07:03:53;;;;;;;;;42.50;32.75;;;;;4.93;81.25;98451.75;5108542;28;8882;-73
2021/12/10 07:06:23;;;;;;;;;27.80;23.20;;;;;4.48;80.67;98451.53;5076954;28;9500;-74
2021/12/10 07:08:53;;;;;;;;;24.20;22.40;;;;;4.13;83.06;98446.13;5091058;28;8883;-73
2021/12/10 07:11:24;;;;;;;;;22.50;17.25;;;;;4.37;83.37;98450.63;5073653;28;8891;-73
2021/12/10 07:13:56;;;;;;;;;37.50;32.75;;;;;4.57;82.66;98449.84;5091251;28;9018;-73
2021/12/10 07:16:29;;;;;;;;;35.00;30.00;;;;;4.53;82.83;98459.31;5109591;28;10195;-73
2021/12/10 07:19:00;;;;;;;;;38.75;36.00;;;;;4.71;81.64;98461.13;5053777;28;8978;-77
2021/12/10 07:21:29;;;;;;;;;38.00;34.75;;;;;4.55;81.23;98459.31;5028883;28;8839;-75
2021/12/10 07:23:58;;;;;;;;;26.75;25.50;;;;;4.75;81.91;98456.84;5028864;28;8832;-76
2021/12/10 07:26:27;;;;;;;;;33.50;28.75;;;;;4.69;80.00;98455.09;5025931;28;9755;-78
2021/12/10 07:28:56;;;;;;;;;31.50;23.00;;;;;4.74;79.92;98452.53;4977044;28;8902;-74
2021/12/10 07:31:26;;;;;;;;;28.75;26.75;;;;;4.87;79.62;98457.75;5034235;28;8992;-73
2021/12/10 07:33:55;;;;;;;;;28.25;27.00;;;;;4.96;79.26;98458.69;5043706;28;8839;-74
2021/12/10 07:36:25;;;;;;;;;28.25;26.75;;;;;5.05;78.51;98466.47;5044797;28;8843;-74
2021/12/10 07:38:56;;;;;;;;;29.50;26.75;;;;;5.03;78.55;98463.00;4995539;28;8852;-74
2021/12/10 07:41:26;;;;;;;;;33.00;26.25;;;;;4.64;78.76;98460.22;5045303;28;8861;-75
2021/12/10 07:43:55;;;;;;;;;29.00;26.80;;;;;4.27;81.71;98460.00;5024822;28;9650;-74
2021/12/10 07:46:27;;;;;;;;;31.50;29.50;;;;;4.18;81.66;98459.94;5019063;28;8925;-74
2021/12/10 07:48:57;;;;;;;;;29.75;24.25;;;;;4.15;82.81;98459.06;5039387;28;9650;-74
2021/12/10 07:51:29;;;;;;;;;27.50;25.50;;;;;4.27;81.61;98454.84;5017030;28;8860;-74
2021/12/10 07:53:59;;;;;;;;;32.50;26.75;;;;;3.56;83.75;98453.41;5087356;28;8900;-74
2021/12/10 07:56:31;;;;;;;;;30.75;25.50;;;;;2.98;87.42;98452.75;5088440;28;8930;-73
2021/12/10 07:59:02;;;;;;;;;29.25;26.50;;;;;2.70;89.72;98449.81;5086243;28;8857;-74
2021/12/10 08:01:33;;;;;;;;;30.75;24.75;;;;;2.86;89.48;98445.75;5086436;28;8969;-75
2021/12/10 08:04:04;;;;;;;;;27.20;24.20;;;;;3.06;88.42;98440.81;5086786;28;9911;-76
2021/12/10 08:06:35;;;;;;;;;24.25;23.25;;;;;3.11;88.12;98442.59;5103536;28;8900;-77
2021/12/10 08:09:06;;;;;;;;;29.00;25.75;;;;;3.35;87.30;98448.03;5086285;28;8879;-75
2021/12/10 08:11:36;;;;;;;;;23.20;20.20;;;;;3.70;86.66;98448.34;5046529;28;8870;-75
2021/12/10 08:14:09;;;;;;;;;22.60;20.80;;;;;4.01;84.56;98452.06;5088250;28;8884;-75
2021/12/10 08:16:39;;;;;;;;;31.75;30.75;;;;;4.19;82.55;98448.75;5086929;28;9593;-74
2021/12/10 08:19:10;;;;;;;;;31.25;27.50;;;;;3.90;83.56;98445.97;5070117;28;8861;-74
2021/12/10 08:21:39;;;;;;;;;36.00;29.25;;;;;4.26;83.48;98444.50;5054442;28;8908;-73
2021/12/10 08:24:07;;;;;;;;;19.20;18.20;;;;;4.40;80.96;98449.75;5086521;28;8966;-79
2021/12/10 08:26:37;;;;;;;;;27.80;22.20;;;;;4.06;81.05;98452.09;5103380;28;8988;-75
2021/12/10 08:29:08;;;;;;;;;31.50;27.75;;;;;3.50;84.27;98456.78;5070047;28;8861;-78
2021/12/10 08:31:37;;;;;;;;;28.50;24.50;;;;;3.12;87.20;98462.38;5083894;28;8868;-76
2021/12/10 08:34:07;;;;;;;;;29.50;26.50;;;;;3.53;85.68;98461.09;5059872;28;9509;-74
2021/12/10 08:36:38;;;;;;;;;27.50;23.00;;;;;3.81;85.04;98463.94;5108873;28;9089;-76
2021/12/10 08:39:11;;;;;;;;;29.40;22.80;;;;;3.88;83.35;98470.88;5090102;28;8859;-75
2021/12/10 08:41:41;;;;;;;;;25.50;24.00;;;;;4.07;83.18;98471.91;5090176;28;8843;-75
2021/12/10 08:44:11;;;;;;;;;41.25;35.50;;;;;3.43;84.65;98470.44;5088896;28;8858;-76
2021/12/10 08:46:43;;;;;;;;;44.25;40.25;;;;;3.33;85.18;98476.34;5089631;28;8978;-75
2021/12/10 08:49:14;;;;;;;;;49.25;43.25;;;;;3.00;88.57;98481.97;5092515;28;8962;-75
2021/12/10 08:51:45;;;;;;;;;31.25;28.00;;;;;2.93;88.98;98475.88;5072293;28;8843;-75
2021/12/10 08:54:14;;;;;;;;;25.00;25.00;;;;;2.96;89.18;98465.59;5071855;28;8986;-76
2021/12/10 08:56:44;;;;;;;;;33.25;30.00;;;;;3.41;88.05;98458.41;5072120;28;8873;-75
2021/12/10 08:59:13;;;;;;;;;32.00;28.50;;;;;3.82;86.76;98460.47;5088784;28;8859;-74
2021/12/10 09:01:46;;;;;;;;;33.25;30.25;;;;;3.82;84.43;98455.31;5072270;28;8857;-78
2021/12/10 09:04:16;;;;;;;;;33.50;29.00;;;;;4.10;84.24;98464.16;5088722;28;8868;-75
2021/12/10 09:06:49;;;;;;;;;34.75;28.25;;;;;4.35;82.98;98454.91;5088882;28;8950;-77
2021/12/10 09:09:19;;;;;;;;;29.50;28.75;;;;;4.61;82.71;98459.34;5048514;28;8918;-77
2021/12/10 09:11:51;;;;;;;;;34.50;31.50;;;;;4.76;80.87;98453.41;5048240;28;8848;-75
2021/12/10 09:14:21;;;;;;;;;37.75;31.25;;;;;4.86;80.48;98456.03;5031695;28;8855;-74
2021/12/10 09:16:50;;;;;;;;;36.50;33.50;;;;;4.80;79.48;98443.13;5015490;28;8840;-74
2021/12/10 09:19:20;;;;;;;;;28.00;26.50;;;;;5.05;79.24;98438.91;5031689;28;8949;-74
2021/12/10 09:21:49;;;;;;;;;33.25;27.75;;;;;5.19;78.45;98431.19;5031583;28;8886;-75
2021/12/10 09:24:20;;;;;;;;;36.00;35.25;;;;;4.93;77.18;98428.50;5030456;28;8869;-74
2021/12/10 09:26:53;;;;;;;;;33.75;31.00;;;;;4.98;77.10;98425.97;5031636;28;9014;-77
2021/12/10 09:29:24;;;;;;;;;35.25;29.50;;;;;5.09;77.32;98429.44;5041258;28;8887;-76
2021/12/10 09:31:54;;;;;;;;;31.75;30.25;;;;;5.31;77.19;98421.75;5067949;28;8894;-75
2021/12/10 09:34:24;;;;;;;;;42.00;36.75;;;;;5.49;76.45;98413.16;5068215;28;8860;-75
2021/12/10 09:36:53;;;;;;;;;39.00;34.75;;;;;5.71;76.34;98420.09;5018574;28;8949;-77
2021/12/10 09:39:23;;;;;;;;;37.00;35.75;;;;;5.81;75.39;98414.03;5052671;28;8956;-74
2021/12/10 09:41:54;;;;;;;;;32.00;28.60;;;;;5.33;74.59;98409.69;5092712;28;8868;-77
2021/12/10 09:44:23;;;;;;;;;35.75;34.50;;;;;5.52;75.37;98411.44;5092668;28;8863;-79
2021/12/10 09:46:55;;;;;;;;;33.25;30.00;;;;;5.04;74.87;98403.56;5110669;28;9052;-74
2021/12/10 09:49:27;;;;;;;;;45.25;40.25;;;;;5.11;77.30;98401.88;5067611;28;8842;-77
2021/12/10 09:52:01;;;;;;;;;38.00;34.00;;;;;5.42;76.53;98394.19;5050548;28;8862;-75
2021/12/10 09:54:34;;;;;;;;;37.00;31.25;;;;;5.69;75.79;98397.66;5050643;28;8826;-74
2021/12/10 09:57:09;;;;;;;;;30.75;26.25;;;;;5.81;74.85;98387.31;5067453;28;8892;-77
2021/12/10 09:59:41;;;;;;;;;35.25;31.75;;;;;5.96;74.05;98391.66;5066746;28;8884;-77
2021/12/10 10:02:12;;;;;;;;;43.00;32.00;;;;;6.01;73.20;98382.16;5067794;28;8865;-74
2021/12/10 10:04:48;;;;;;;;;36.50;30.50;;;;;6.11;72.67;98380.44;5035769;28;8829;-76
2021/12/10 10:07:20;;;;;;;;;27.00;27.00;;;;;5.88;72.67;98380.41;5068630;28;8861;-76
2021/12/10 10:09:52;;;;;;;;;30.75;26.25;;;;;5.94;71.84;98375.25;5050327;28;8862;-75
2021/12/10 10:12:25;;;;;;;;;34.75;30.50;;;;;4.96;74.86;98381.19;5066710;28;9019;-74
2021/12/10 10:14:54;;;;;;;;;42.25;34.75;;;;;5.31;76.04;98380.38;5033641;28;8921;-75
2021/12/10 10:17:43;;;;;;;;;36.50;33.00;;;;;5.53;73.85;98386.44;5030859;28;8901;-78
2021/12/10 10:20:15;;;;;;;;;29.50;29.00;;;;;5.62;74.75;98384.72;5054252;28;8864;-74
2021/12/10 10:22:45;;;;;;;;;33.00;28.25;;;;;5.85;74.10;98376.09;5050106;28;8905;-77
2021/12/10 10:25:18;;;;;;;;;33.25;31.00;;;;;6.05;73.06;98370.97;5066711;28;8990;-75
2021/12/10 10:27:48;;;;;;;;;30.50;30.50;;;;;6.22;72.74;98369.19;5049952;28;8867;-75
2021/12/10 10:30:24;;;;;;;;;38.75;34.50;;;;;6.35;72.21;98379.50;5026558;28;8852;-77
2021/12/10 10:32:54;;;;;;;;;44.25;38.25;;;;;6.41;72.03;98374.34;5011193;28;8954;-77
2021/12/10 10:35:29;;;;;;;;;51.50;43.00;;;;;6.57;72.26;98376.00;5006972;28;8870;-74
2021/12/10 10:38:00;;;;;;;;;44.75;41.75;;;;;6.42;71.39;98374.31;5006713;28;8948;-76
2021/12/10 10:40:32;;;;;;;;;48.00;40.00;;;;;6.51;72.20;98373.44;5007115;28;8866;-75
2021/12/10 10:43:01;;;;;;;;;45.25;41.75;;;;;6.61;71.12;98366.47;4990326;28;8899;-75
2021/12/10 10:45:34;;;;;;;;;45.00;39.50;;;;;6.70;70.75;98357.81;5006974;28;8967;-77
2021/12/10 10:48:05;;;;;;;;;50.75;43.25;;;;;6.75;70.48;98356.09;5025515;28;8898;-75
2021/12/10 10:50:39;;;;;;;;;52.75;44.50;;;;;6.82;71.22;98347.38;5010070;28;8852;-74
2021/12/10 10:53:11;;;;;;;;;45.25;41.00;;;;;6.95;71.31;98337.81;5009768;28;9009;-75
2021/12/10 10:55:48;;;;;;;;;43.25;37.50;;;;;7.10;69.89;98345.50;5026953;28;8872;-75
2021/12/10 10:58:19;;;;;;;;;27.25;21.75;;;;;7.05;68.60;98341.22;5026754;28;8888;-73
2021/12/10 11:00:58;;;;;;;;;39.50;35.00;;;;;7.12;69.16;98337.72;5035448;28;8874;-77
2021/12/10 11:03:51;;;;;;;;;34.80;31.00;;;;;7.11;67.62;98325.66;5063230;28;8889;-73
2021/12/10 11:06:31;;;;;;;;;34.75;29.25;;;;;7.30;68.98;98340.22;5036258;28;8947;-74
2021/12/10 11:09:09;;;;;;;;;36.75;31.75;;;;;7.38;68.35;98333.22;5067107;28;10105;-74
2021/12/10 11:11:45;;;;;;;;;34.75;34.75;;;;;7.51;68.30;98330.56;5083445;28;8847;-74
2021/12/10 11:14:18;;;;;;;;;39.50;35.25;;;;;7.45;66.73;98330.56;5067601;28;8877;-79
2021/12/10 11:16:54;;;;;;;;;40.50;37.50;;;;;7.34;66.29;98328.94;5067439;28;8988;-74
2021/12/10 11:19:50;;;;;;;;;38.50;35.75;;;;;7.52;69.02;98322.72;5045892;28;9052;-74
2021/12/10 11:22:23;;;;;;;;;36.00;32.50;;;;;7.53;66.76;98319.28;5028677;28;9568;-76
2021/12/10 11:24:56;;;;;;;;;26.80;24.80;;;;;7.01;66.58;98325.72;5012917;28;8874;-77
2021/12/10 11:27:31;;;;;;;;;29.20;28.20;;;;;6.38;68.83;98332.91;5012679;28;9489;-75
2021/12/10 11:30:11;;;;;;;;;32.00;29.75;;;;;6.76;69.84;98327.56;5045942;28;9692;-75
2021/12/10 11:32:42;;;;;;;;;42.75;39.50;;;;;6.80;70.39;98312.84;5038599;28;8931;-73
2021/12/10 11:35:14;;;;;;;;;32.75;32.00;;;;;6.89;68.62;98317.13;5045826;28;8885;-76
2021/12/10 11:37:59;;;;;;;;;39.00;31.25;;;;;6.93;67.07;98309.31;5029025;28;8870;-76
2021/12/10 11:40:41;;;;;;;;;41.25;38.50;;;;;7.14;68.81;98303.13;4979485;28;9665;-73
2021/12/10 11:43:31;;;;;;;;;37.00;32.75;;;;;7.28;67.81;98304.78;5028584;28;8892;-75
2021/12/10 11:49:23;;;;;;;;;47.75;41.50;;;;;7.35;66.59;98289.19;4904442;29;8892;-74
2021/12/10 11:51:59;;;;;;;;;39.25;34.25;;;;;7.46;66.16;98290.81;4926819;29;8889;-75
2021/12/10 11:54:35;;;;;;;;;36.25;34.00;;;;;7.53;66.68;98285.56;4920021;29;8956;-75
2021/12/10 11:57:11;;;;;;;;;34.75;28.00;;;;;7.69;66.27;98273.28;4923396;28;8870;-75
2021/12/10 11:59:42;;;;;;;;;34.25;30.00;;;;;7.80;65.72;98268.00;4950713;28;8874;-76
2021/12/10 12:02:15;;;;;;;;;42.00;39.00;;;;;7.96;66.79;98266.97;4947524;28;8900;-75
2021/12/10 12:04:47;;;;;;;;;43.75;38.50;;;;;8.12;65.57;98261.63;4931158;28;8919;-76